Time;durP1;ratioP1;P1;durP2;ratioP2;P2;SDS_P1;SDS_P2;PMS_P1;PMS_P2;Temp;Humidity;BMP_temperature;BMP_pressure;BME280_temperature;BME280_humidity;BME280_pressure;Samples;Min_cycle;Max_cycle;Signal;HPM_P1;HPM_P2
2023/02/16 00:01:25;;;;;;;;;;;4.10;99.90;;;;;;5057246;28;19921;-59
2023/02/16 00:03:54;;;;;;;;;;;4.10;99.90;;;;;;5056824;28;19960;-59
2023/02/16 00:06:21;;;;;;;;;;;4.20;99.90;;;;;;5057684;28;19925;-58
2023/02/16 00:08:48;;;;;;;;;;;4.20;99.90;;;;;;5057426;28;19961;-59
2023/02/16 00:14:01;;;;;;;;;;;4.10;99.90;;;;;;5057032;28;19924;-60
2023/02/16 00:16:28;;;;;;;;;;;4.10;99.90;;;;;;5056971;28;19925;-57
2023/02/16 00:18:57;;;;;;;;;;;4.00;99.90;;;;;;5057018;28;19921;-58
2023/02/16 00:21:24;;;;;;;;;;;4.10;99.90;;;;;;5056516;28;19924;-59
2023/02/16 00:23:51;;;;;;;;;;;4.10;99.90;;;;;;5056640;28;19964;-56
2023/02/16 00:26:19;;;;;;;;;;;4.10;99.90;;;;;;5056386;28;19927;-56
2023/02/16 00:28:46;;;;;;;;;;;4.00;99.90;;;;;;5056283;28;20490;-58
2023/02/16 00:31:16;;;;;;;;;;;4.00;99.90;;;;;;5057336;28;20015;-58
2023/02/16 00:33:43;;;;;;;;;;;4.00;99.90;;;;;;5057266;28;19921;-59
2023/02/16 00:36:11;;;;;;;;;;;4.10;99.90;;;;;;5057397;28;19928;-59
2023/02/16 00:38:38;;;;;;;;;;;4.00;99.90;;;;;;5057201;28;20296;-57
2023/02/16 00:41:49;;;;;;;;;;;4.00;99.90;;;;;;5057156;28;19924;-57
2023/02/16 00:43:53;;;;;;;;;;;4.00;99.90;;;;;;5056023;28;19928;-57
2023/02/16 00:46:21;;;;;;;;;;;4.00;99.90;;;;;;5056959;28;20031;-57
2023/02/16 00:48:47;;;;;;;;;;;4.00;99.90;;;;;;5054838;28;20345;-59
2023/02/16 00:51:16;;;;;;;;;;;4.00;99.90;;;;;;5055132;28;19921;-57
2023/02/16 00:53:42;;;;;;;;;;;4.00;99.90;;;;;;5056981;28;19920;-62
2023/02/16 00:56:18;;;;;;;;;;;4.00;99.90;;;;;;5055957;28;20220;-61
2023/02/16 00:58:45;;;;;;;;;;;3.90;99.90;;;;;;5055675;28;20300;-61
2023/02/16 01:01:13;;;;;;;;;;;3.90;99.90;;;;;;5056495;28;20363;-61
2023/02/16 01:03:40;;;;;;;;;;;3.80;99.90;;;;;;5056380;28;19927;-61
2023/02/16 01:11:33;;;;;;;;;;;3.70;99.90;;;;;;5076096;28;19978;-61
2023/02/16 01:14:00;;;;;;;;;;;3.60;99.90;;;;;;5075872;28;20212;-61
2023/02/16 01:16:33;;;;;;;;;;;3.60;99.90;;;;;;5074822;28;20212;-62
2023/02/16 01:19:00;;;;;;;;;;;3.60;99.90;;;;;;5075598;28;19921;-61
2023/02/16 01:21:26;;;;;;;;;;;3.60;99.90;;;;;;5075375;28;19944;-61
2023/02/16 01:23:55;;;;;;;;;;;3.70;99.90;;;;;;5075154;28;19921;-62
2023/02/16 01:26:21;;;;;;;;;;;3.70;99.90;;;;;;5075436;28;19944;-62
2023/02/16 01:28:48;;;;;;;;;;;3.70;99.90;;;;;;5075587;28;19927;-62
2023/02/16 01:31:15;;;;;;;;;;;3.50;99.90;;;;;;5076444;28;20308;-60
2023/02/16 01:33:43;;;;;;;;;;;3.50;99.90;;;;;;5076249;28;19974;-62
2023/02/16 01:36:19;;;;;;;;;;;3.50;99.90;;;;;;5076517;28;19920;-62
2023/02/16 01:38:46;;;;;;;;;;;3.50;99.90;;;;;;5075837;28;19925;-60
2023/02/16 01:41:22;;;;;;;;;;;3.50;99.90;;;;;;5075747;28;19926;-61
2023/02/16 01:43:50;;;;;;;;;;;3.60;99.90;;;;;;5075783;28;19927;-61
2023/02/16 01:46:20;;;;;;;;;;;3.60;99.90;;;;;;5073365;28;19920;-61
2023/02/16 01:48:47;;;;;;;;;;;3.50;99.90;;;;;;5075602;28;19981;-62
2023/02/16 01:51:16;;;;;;;;;;;3.70;99.90;;;;;;5075952;28;19974;-62
2023/02/16 01:53:44;;;;;;;;;;;3.70;99.90;;;;;;5075833;28;19920;-61
2023/02/16 01:56:18;;;;;;;;;;;3.60;99.90;;;;;;5074735;28;20364;-60
2023/02/16 01:58:48;;;;;;;;;;;3.70;99.90;;;;;;5076520;28;20197;-62
2023/02/16 02:01:33;;;;;;;;;;;3.70;99.90;;;;;;5076260;28;19920;-61
2023/02/16 02:06:44;;;;;;;;;;;3.60;99.90;;;;;;5075895;28;19977;-61
2023/02/16 02:09:13;;;;;;;;;;;3.60;99.90;;;;;;5076416;28;19920;-61
2023/02/16 02:11:41;;;;;;;;;;;3.70;99.90;;;;;;5076128;28;20311;-61
2023/02/16 02:14:14;;;;;;;;;;;3.70;99.90;;;;;;5076016;28;19927;-61
2023/02/16 02:16:41;;;;;;;;;;;3.80;99.90;;;;;;5075872;28;19920;-61
2023/02/16 02:19:08;;;;;;;;;;;3.70;99.90;;;;;;5076167;28;19924;-60
2023/02/16 02:24:48;;;;;;;;;;;3.60;99.90;;;;;;5075745;28;20240;-61
2023/02/16 02:27:19;;;;;;;;;;;3.60;99.90;;;;;;5075323;28;19926;-61
2023/02/16 02:30:07;;;;;;;;;;;3.70;99.90;;;;;;5076254;28;19927;-61
2023/02/16 02:32:43;;;;;;;;;;;3.70;99.90;;;;;;5055404;28;19953;-61
2023/02/16 02:35:17;;;;;;;;;;;3.50;99.90;;;;;;5054702;28;20583;-61
2023/02/16 02:37:47;;;;;;;;;;;3.50;99.90;;;;;;5055347;28;19928;-61
2023/02/16 02:40:17;;;;;;;;;;;3.50;99.90;;;;;;5055614;28;19921;-61
2023/02/16 02:42:49;;;;;;;;;;;3.50;99.90;;;;;;5055187;28;19928;-60
2023/02/16 02:45:18;;;;;;;;;;;3.50;99.90;;;;;;5059269;28;20332;-61
2023/02/16 02:47:46;;;;;;;;;;;3.50;99.90;;;;;;5058469;28;19921;-61
2023/02/16 02:50:29;;;;;;;;;;;3.40;99.90;;;;;;5058095;28;19936;-61
2023/02/16 02:52:57;;;;;;;;;;;3.40;99.90;;;;;;5058170;28;19924;-61
2023/02/16 03:00:55;;;;;;;;;;;3.60;99.90;;;;;;5058677;28;19927;-60
2023/02/16 03:03:24;;;;;;;;;;;3.50;99.90;;;;;;5058590;28;20018;-61
2023/02/16 03:05:51;;;;;;;;;;;3.50;99.90;;;;;;5057874;28;19920;-64
2023/02/16 03:08:20;;;;;;;;;;;3.50;99.90;;;;;;5058058;28;19924;-61
2023/02/16 03:13:36;;;;;;;;;;;3.40;99.90;;;;;;5058507;28;20367;-61
2023/02/16 03:16:05;;;;;;;;;;;3.40;99.90;;;;;;5057829;28;19920;-61
2023/02/16 03:29:35;;;;;;;;;;;3.30;99.90;;;;;;5057857;28;19970;-61
2023/02/16 03:32:02;;;;;;;;;;;3.30;99.90;;;;;;5057077;28;19921;-60
2023/02/16 03:34:30;;;;;;;;;;;3.20;99.90;;;;;;5056830;28;20217;-60
2023/02/16 03:36:59;;;;;;;;;;;3.10;99.90;;;;;;5057033;28;19925;-61
2023/02/16 03:39:26;;;;;;;;;;;3.20;99.90;;;;;;5058275;28;19925;-61
2023/02/16 03:41:55;;;;;;;;;;;3.30;99.90;;;;;;5056636;28;20316;-61
2023/02/16 03:44:23;;;;;;;;;;;3.40;99.90;;;;;;5055809;28;19920;-61
2023/02/16 03:46:51;;;;;;;;;;;3.40;99.90;;;;;;5057109;28;20308;-61
2023/02/16 03:49:19;;;;;;;;;;;3.50;99.90;;;;;;5057434;28;19920;-62
2023/02/16 03:51:45;;;;;;;;;;;3.50;99.90;;;;;;5058402;28;19921;-60
2023/02/16 03:54:12;;;;;;;;;;;3.50;99.90;;;;;;5057101;28;19920;-62
2023/02/16 03:56:39;;;;;;;;;;;3.40;99.90;;;;;;5057139;28;19921;-59
2023/02/16 03:59:06;;;;;;;;;;;3.50;99.90;;;;;;5058229;28;19928;-60
2023/02/16 04:01:33;;;;;;;;;;;3.40;99.90;;;;;;5057259;28;19920;-60
2023/02/16 04:04:01;;;;;;;;;;;3.40;99.90;;;;;;5056092;28;19928;-61
2023/02/16 04:06:28;;;;;;;;;;;3.20;99.90;;;;;;5057422;28;20224;-60
2023/02/16 04:08:55;;;;;;;;;;;3.20;99.90;;;;;;5056498;28;19944;-60
2023/02/16 04:14:06;;;;;;;;;;;3.40;99.90;;;;;;5055474;28;19924;-60
2023/02/16 04:16:33;;;;;;;;;;;3.40;99.90;;;;;;5055798;28;19932;-61
2023/02/16 04:19:01;;;;;;;;;;;3.50;99.90;;;;;;5057115;28;19921;-61
2023/02/16 04:21:28;;;;;;;;;;;3.50;99.90;;;;;;5057265;28;19920;-60
2023/02/16 04:23:55;;;;;;;;;;;3.40;99.90;;;;;;5057399;28;19921;-60
2023/02/16 04:26:22;;;;;;;;;;;3.30;99.90;;;;;;5056931;28;19921;-61
2023/02/16 04:28:48;;;;;;;;;;;3.40;99.90;;;;;;5054520;28;19920;-61
2023/02/16 04:31:15;;;;;;;;;;;3.40;99.90;;;;;;5056195;28;19943;-61
2023/02/16 04:33:42;;;;;;;;;;;3.50;99.90;;;;;;5057038;28;19920;-61
2023/02/16 04:36:11;;;;;;;;;;;3.50;99.90;;;;;;5056723;28;20288;-61
2023/02/16 04:38:37;;;;;;;;;;;3.30;99.90;;;;;;5056179;28;19920;-61
2023/02/16 04:41:04;;;;;;;;;;;3.20;99.90;;;;;;5056488;28;20504;-60
2023/02/16 04:43:32;;;;;;;;;;;3.20;99.90;;;;;;5055707;28;20229;-59
2023/02/16 04:45:59;;;;;;;;;;;3.10;99.90;;;;;;5056885;28;20256;-60
2023/02/16 04:48:25;;;;;;;;;;;3.10;99.90;;;;;;5055795;28;19928;-59
2023/02/16 04:50:52;;;;;;;;;;;3.10;99.90;;;;;;5038104;28;19921;-60
2023/02/16 04:53:21;;;;;;;;;;;3.30;99.90;;;;;;5056245;28;20225;-61
2023/02/16 04:55:48;;;;;;;;;;;3.20;99.90;;;;;;5056315;28;19920;-62
2023/02/16 04:58:15;;;;;;;;;;;3.20;99.90;;;;;;5056617;28;19925;-61
2023/02/16 05:00:42;;;;;;;;;;;3.20;99.90;;;;;;5055291;28;19927;-61
2023/02/16 05:03:09;;;;;;;;;;;3.20;99.90;;;;;;5055656;28;19928;-61
2023/02/16 05:05:36;;;;;;;;;;;3.10;99.90;;;;;;5055209;28;19925;-61
2023/02/16 05:08:03;;;;;;;;;;;3.10;99.90;;;;;;5055495;28;19921;-59
2023/02/16 05:10:31;;;;;;;;;;;3.40;99.90;;;;;;5056410;28;19963;-60
2023/02/16 05:15:47;;;;;;;;;;;3.60;99.90;;;;;;4998195;28;19925;-60
2023/02/16 05:18:14;;;;;;;;;;;3.60;99.90;;;;;;5055786;28;19928;-60
2023/02/16 05:23:25;;;;;;;;;;;3.40;99.90;;;;;;5055717;28;19973;-60
2023/02/16 05:25:54;;;;;;;;;;;3.30;99.90;;;;;;5055025;28;19936;-60
2023/02/16 05:28:20;;;;;;;;;;;3.20;99.90;;;;;;5056330;28;20328;-60
2023/02/16 05:30:47;;;;;;;;;;;3.10;99.90;;;;;;5054588;28;19974;-61
2023/02/16 05:33:14;;;;;;;;;;;3.10;99.90;;;;;;5055092;28;20316;-60
2023/02/16 05:35:41;;;;;;;;;;;3.10;99.90;;;;;;5053128;28;19920;-59
2023/02/16 05:38:08;;;;;;;;;;;3.20;99.90;;;;;;5053478;28;20209;-60
2023/02/16 05:40:34;;;;;;;;;;;3.30;99.90;;;;;;5052890;28;20360;-60
2023/02/16 05:43:03;;;;;;;;;;;3.30;99.90;;;;;;5053673;28;19921;-60
2023/02/16 05:45:29;;;;;;;;;;;3.40;99.90;;;;;;5055117;28;19921;-60
2023/02/16 05:47:56;;;;;;;;;;;3.40;99.90;;;;;;5055492;28;19924;-59
2023/02/16 05:50:23;;;;;;;;;;;3.30;99.90;;;;;;5055237;28;19920;-59
2023/02/16 05:52:50;;;;;;;;;;;3.40;99.90;;;;;;5055292;28;19921;-60
2023/02/16 05:55:17;;;;;;;;;;;3.30;99.90;;;;;;5055188;28;19927;-59
2023/02/16 05:57:44;;;;;;;;;;;3.10;99.90;;;;;;5054608;28;19927;-61
2023/02/16 06:00:15;;;;;;;;;;;3.00;99.90;;;;;;5054914;28;19927;-59
2023/02/16 06:02:42;;;;;;;;;;;3.00;99.90;;;;;;5053561;28;19920;-61
2023/02/16 06:05:08;;;;;;;;;;;3.00;99.90;;;;;;5053180;28;20240;-61
2023/02/16 06:07:35;;;;;;;;;;;2.90;99.90;;;;;;5053640;28;20296;-60
2023/02/16 06:10:03;;;;;;;;;;;3.00;99.90;;;;;;5051876;28;20312;-59
2023/02/16 06:12:31;;;;;;;;;;;3.00;99.90;;;;;;5053543;28;19921;-61
2023/02/16 06:14:58;;;;;;;;;;;3.00;99.90;;;;;;5053214;28;19925;-61
2023/02/16 06:17:27;;;;;;;;;;;3.10;99.90;;;;;;5053076;28;19928;-60
2023/02/16 06:19:54;;;;;;;;;;;3.00;99.90;;;;;;5057144;28;19924;-60
2023/02/16 06:22:21;;;;;;;;;;;3.00;99.90;;;;;;5056890;28;19921;-60
2023/02/16 06:24:48;;;;;;;;;;;2.90;99.90;;;;;;5055117;28;19928;-60
2023/02/16 06:27:15;;;;;;;;;;;2.80;99.90;;;;;;5056604;28;19920;-59
2023/02/16 06:29:42;;;;;;;;;;;2.70;99.90;;;;;;5057110;28;19921;-60
2023/02/16 06:32:08;;;;;;;;;;;2.80;99.90;;;;;;5054491;28;19948;-59
2023/02/16 06:34:37;;;;;;;;;;;2.80;99.90;;;;;;5053567;28;19928;-59
2023/02/16 06:37:04;;;;;;;;;;;2.80;99.90;;;;;;5057233;28;19960;-59
2023/02/16 06:39:31;;;;;;;;;;;2.80;99.90;;;;;;5057416;28;19966;-59
2023/02/16 06:41:57;;;;;;;;;;;2.70;99.90;;;;;;5056685;28;19929;-59
2023/02/16 06:44:24;;;;;;;;;;;2.60;99.90;;;;;;5056611;28;19921;-60
2023/02/16 06:46:51;;;;;;;;;;;2.60;99.90;;;;;;5054455;28;19921;-60
2023/02/16 06:49:19;;;;;;;;;;;2.60;99.90;;;;;;5054858;28;19928;-60
2023/02/16 06:51:48;;;;;;;;;;;2.70;99.90;;;;;;5054427;28;19927;-59
2023/02/16 06:54:16;;;;;;;;;;;2.90;99.90;;;;;;5053864;28;19947;-60
2023/02/16 06:56:43;;;;;;;;;;;2.90;99.90;;;;;;5054161;28;19921;-60
2023/02/16 06:59:10;;;;;;;;;;;2.90;99.90;;;;;;5056766;28;19921;-60
2023/02/16 07:01:38;;;;;;;;;;;2.90;99.90;;;;;;5055008;28;19921;-59
2023/02/16 07:04:05;;;;;;;;;;;3.00;99.90;;;;;;5052789;28;20047;-59
2023/02/16 07:06:32;;;;;;;;;;;3.10;99.90;;;;;;5054457;28;19924;-59
2023/02/16 07:09:00;;;;;;;;;;;3.20;99.90;;;;;;5055662;28;20174;-59
2023/02/16 07:11:27;;;;;;;;;;;3.10;99.90;;;;;;5054138;28;19921;-49
2023/02/16 07:13:54;;;;;;;;;;;3.20;99.90;;;;;;5053614;28;20026;-54
2023/02/16 07:16:21;;;;;;;;;;;3.60;99.90;;;;;;5055413;28;19971;-54
2023/02/16 07:18:48;;;;;;;;;;;4.10;99.90;;;;;;5053338;28;19921;-54
2023/02/16 07:21:15;;;;;;;;;;;4.30;99.90;;;;;;5052084;28;19920;-54
2023/02/16 07:23:42;;;;;;;;;;;4.30;99.90;;;;;;5056072;28;19921;-53
2023/02/16 07:26:10;;;;;;;;;;;4.30;99.90;;;;;;5056270;28;20297;-53
2023/02/16 07:28:37;;;;;;;;;;;4.30;99.90;;;;;;5051145;28;20322;-52
2023/02/16 07:31:08;;;;;;;;;;;4.50;99.90;;;;;;5053833;28;20368;-56
2023/02/16 07:33:35;;;;;;;;;;;4.60;99.90;;;;;;5054182;28;20082;-49
2023/02/16 07:36:02;;;;;;;;;;;4.80;99.90;;;;;;5055885;28;19921;-48
2023/02/16 07:38:29;;;;;;;;;;;4.90;99.90;;;;;;5052474;28;19927;-50
2023/02/16 07:40:56;;;;;;;;;;;4.80;99.90;;;;;;5052810;28;19927;-52
2023/02/16 07:43:25;;;;;;;;;;;4.80;99.90;;;;;;5053799;28;20219;-49
2023/02/16 07:45:52;;;;;;;;;;;4.80;99.90;;;;;;5054752;28;19924;-49
2023/02/16 07:48:19;;;;;;;;;;;4.80;99.90;;;;;;5053824;28;19920;-49
2023/02/16 07:50:45;;;;;;;;;;;4.50;99.90;;;;;;5052818;28;20237;-52
2023/02/16 07:53:12;;;;;;;;;;;5.10;99.90;;;;;;5053392;28;19931;-52
2023/02/16 07:55:40;;;;;;;;;;;5.10;99.90;;;;;;5054070;28;20297;-50
2023/02/16 07:58:07;;;;;;;;;;;5.00;99.90;;;;;;5054967;28;19932;-53
2023/02/16 08:00:35;;;;;;;;;;;5.00;99.90;;;;;;5052983;28;19920;-53
2023/02/16 08:03:02;;;;;;;;;;;5.00;99.90;;;;;;5053193;28;19924;-52
2023/02/16 08:05:29;;;;;;;;;;;4.90;99.90;;;;;;5051786;28;19932;-51
2023/02/16 08:07:56;;;;;;;;;;;5.10;99.90;;;;;;5053629;28;19920;-51
2023/02/16 08:10:23;;;;;;;;;;;5.20;99.90;;;;;;5052840;28;19920;-49
2023/02/16 08:12:50;;;;;;;;;;;5.60;99.90;;;;;;5051011;28;19927;-51
2023/02/16 08:15:17;;;;;;;;;;;5.70;99.90;;;;;;5053376;28;19920;-51
2023/02/16 08:17:46;;;;;;;;;;;5.90;99.90;;;;;;5036269;28;20015;-53
2023/02/16 08:20:14;;;;;;;;;;;5.70;99.90;;;;;;5054536;28;19921;-54
2023/02/16 08:22:40;;;;;;;;;;;5.60;99.90;;;;;;5055013;28;19927;-56
2023/02/16 08:25:08;;;;;;;;;;;5.50;99.90;;;;;;5053865;28;19920;-52
2023/02/16 08:27:35;;;;;;;;;;;5.30;99.90;;;;;;5052631;28;19956;-52
2023/02/16 08:30:02;;;;;;;;;;;5.20;99.90;;;;;;5053911;28;19921;-53
2023/02/16 08:32:29;;;;;;;;;;;5.40;99.90;;;;;;5053757;28;19924;-51
2023/02/16 08:34:57;;;;;;;;;;;5.60;99.90;;;;;;5052502;28;19921;-63
2023/02/16 08:37:24;;;;;;;;;;;5.70;99.90;;;;;;5052966;28;20296;-62
2023/02/16 08:39:52;;;;;;;;;;;5.70;99.90;;;;;;5051904;28;19921;-63
2023/02/16 08:42:20;;;;;;;;;;;5.80;99.90;;;;;;5052347;28;20289;-65
2023/02/16 08:44:46;;;;;;;;;;;6.00;99.90;;;;;;5054134;28;20016;-62
2023/02/16 08:47:15;;;;;;;;;;;6.30;99.90;;;;;;5052597;28;19925;-63
2023/02/16 08:49:43;;;;;;;;;;;6.40;99.90;;;;;;5051407;28;19921;-61
2023/02/16 08:52:11;;;;;;;;;;;6.50;99.90;;;;;;5052074;28;19978;-64
2023/02/16 08:54:39;;;;;;;;;;;6.50;99.90;;;;;;5053009;28;19972;-62
2023/02/16 08:57:06;;;;;;;;;;;6.50;99.90;;;;;;5054066;28;19928;-61
2023/02/16 08:59:33;;;;;;;;;;;6.60;99.90;;;;;;5052615;28;19920;-62
2023/02/16 09:02:00;;;;;;;;;;;6.60;99.90;;;;;;5053158;28;19921;-63
2023/02/16 09:04:28;;;;;;;;;;;6.60;99.90;;;;;;5052863;28;19921;-63
2023/02/16 09:06:55;;;;;;;;;;;6.70;99.90;;;;;;5054735;28;20204;-63
2023/02/16 09:09:23;;;;;;;;;;;6.80;99.90;;;;;;5053281;28;19920;-63
2023/02/16 09:11:50;;;;;;;;;;;7.00;99.90;;;;;;5052244;28;20320;-62
2023/02/16 09:14:18;;;;;;;;;;;7.10;99.90;;;;;;5052580;28;19921;-62
2023/02/16 09:16:45;;;;;;;;;;;7.30;99.90;;;;;;5054510;28;20292;-61
2023/02/16 09:19:16;;;;;;;;;;;7.40;99.90;;;;;;5065672;28;19982;-62
2023/02/16 09:21:43;;;;;;;;;;;7.40;99.90;;;;;;5071667;28;19921;-63
2023/02/16 09:24:10;;;;;;;;;;;7.50;99.90;;;;;;5074164;28;19931;-58
2023/02/16 09:26:41;;;;;;;;;;;7.60;99.90;;;;;;5072713;28;19925;-55
2023/02/16 09:29:08;;;;;;;;;;;7.70;99.90;;;;;;5068000;28;20224;-55
2023/02/16 09:31:38;;;;;;;;;;;7.80;99.90;;;;;;5068455;28;20346;-55
2023/02/16 09:34:07;;;;;;;;;;;7.80;99.90;;;;;;5071239;28;19928;-63
2023/02/16 09:36:35;;;;;;;10.23;5.27;;;7.90;99.90;;;;;;5074373;28;20641;-59
2023/02/16 09:39:03;;;;;;;9.10;5.20;;;8.00;99.90;;;;;;5070607;28;20430;-59
2023/02/16 09:42:03;;;;;;;7.93;6.22;;;8.10;99.90;;;;;;5071444;28;20415;-58
2023/02/16 09:44:44;;;;;;;7.47;5.50;;;8.20;99.90;;;;;;5067140;28;20847;-60
2023/02/16 09:47:19;;;;;;;7.18;5.40;;;8.40;99.90;;;;;;5070887;28;20418;-60
2023/02/16 09:49:48;;;;;;;9.15;4.43;;;8.50;99.90;;;;;;5072872;28;20806;-59
2023/02/16 09:52:25;;;;;;;4.50;2.90;;;8.60;99.90;;;;;;5070682;28;20850;-60
2023/02/16 09:54:54;;;;;;;4.00;2.25;;;8.80;99.90;;;;;;5072202;28;20467;-63
2023/02/16 09:57:40;;;;;;;4.20;2.03;;;9.00;99.90;;;;;;5069952;28;20459;-61
2023/02/16 10:00:21;;;;;;;5.10;1.90;;;9.10;99.90;;;;;;5060788;28;20747;-60
2023/02/16 10:02:53;;;;;;;4.05;2.20;;;9.20;99.90;;;;;;5073375;28;20430;-60
2023/02/16 10:05:26;;;;;;;2.95;1.73;;;9.40;99.90;;;;;;5075681;28;20502;-60
2023/02/16 10:08:06;;;;;;;3.57;1.80;;;9.50;99.90;;;;;;5073829;28;20840;-61
2023/02/16 10:10:45;;;;;;;3.30;1.60;;;9.70;99.90;;;;;;5073604;28;20488;-60
2023/02/16 10:13:21;;;;;;;2.70;1.40;;;9.80;99.90;;;;;;5074485;28;20581;-59
2023/02/16 10:15:49;;;;;;;2.65;1.40;;;9.90;99.90;;;;;;5075018;28;20431;-61
2023/02/16 10:18:29;;;;;;;2.30;1.40;;;10.00;99.90;;;;;;5075045;28;20419;-61
2023/02/16 10:21:01;;;;;;;2.80;1.50;;;10.00;99.90;;;;;;5073396;28;20778;-53
2023/02/16 10:23:40;;;;;;;2.83;1.40;;;10.10;99.90;;;;;;5074644;28;20865;-54
2023/02/16 10:26:16;;;;;;;2.47;1.30;;;10.20;99.90;;;;;;5074387;28;20435;-54
2023/02/16 10:28:48;;;;;;;2.50;1.50;;;10.30;99.90;;;;;;5075239;28;20431;-55
2023/02/16 10:31:23;;;;;;;2.53;1.20;;;10.40;99.90;;;;;;5074154;28;20411;-53
2023/02/16 10:34:13;;;;;;;1.80;1.20;;;10.60;99.90;;;;;;5069211;28;20576;-55
2023/02/16 10:37:02;;;;;;;2.90;1.30;;;10.70;99.90;;;;;;5069917;28;20494;-55
2023/02/16 10:39:37;;;;;;;1.90;1.20;;;10.70;99.90;;;;;;5073338;28;20434;-55
2023/02/16 10:42:15;;;;;;;2.67;1.60;;;10.90;99.90;;;;;;5072626;28;20427;-54
2023/02/16 10:44:47;;;;;;;2.63;1.40;;;10.90;99.90;;;;;;5073067;28;20439;-57
2023/02/16 10:47:28;;;;;;;2.88;1.20;;;11.00;99.90;;;;;;5073619;28;20430;-54
2023/02/16 10:49:55;;;;;;;2.30;1.20;;;11.10;99.90;;;;;;5075113;28;20843;-55
2023/02/16 10:52:24;;;;;;;3.20;1.25;;;11.20;99.90;;;;;;5074606;28;20423;-56
2023/02/16 10:54:52;;;;;;;1.90;1.10;;;11.30;99.90;;;;;;5074579;28;20427;-56
2023/02/16 10:57:26;;;;;;;2.15;1.20;;;11.50;99.90;;;;;;5072938;28;20857;-55
2023/02/16 10:59:57;;;;;;;1.90;1.00;;;11.70;99.90;;;;;;5072518;28;20982;-55
2023/02/16 11:02:26;;;;;;;2.50;1.50;;;11.90;99.90;;;;;;5072772;28;20857;-57
2023/02/16 11:04:54;;;;;;;3.10;1.20;;;12.10;99.90;;;;;;5070378;28;20431;-57
2023/02/16 11:07:23;;;;;;;4.00;1.50;;;12.40;99.90;;;;;;5072113;28;20443;-55
2023/02/16 11:09:54;;;;;;;2.90;1.10;;;12.50;99.90;;;;;;5070319;28;20446;-57
2023/02/16 11:12:29;;;;;;;2.05;1.17;;;12.70;99.90;;;;;;5072025;28;20846;-55
2023/02/16 11:15:02;;;;;;;1.92;1.00;;;12.90;99.90;;;;;;5070871;28;20599;-58
2023/02/16 11:17:34;;;;;;;2.47;1.30;;;13.10;99.90;;;;;;5066325;28;20430;-56
2023/02/16 11:20:05;;;;;;;2.50;1.40;;;13.20;99.90;;;;;;5073301;28;20428;-55
2023/02/16 11:22:35;;;;;;;2.38;1.20;;;13.40;99.90;;;;;;5073289;28;20420;-59
2023/02/16 11:25:24;;;;;;;2.20;1.50;;;13.50;99.90;;;;;;5073846;28;20441;-53
2023/02/16 11:27:54;;;;;;;1.90;1.50;;;13.60;99.90;;;;;;5072854;28;20459;-56
2023/02/16 11:30:31;;;;;;;1.45;0.90;;;13.70;99.90;;;;;;5071885;28;20415;-54
2023/02/16 11:33:00;;;;;;;2.00;0.90;;;13.90;98.80;;;;;;5069931;28;20434;-56
2023/02/16 11:35:27;;;;;;;1.40;0.90;;;14.00;97.60;;;;;;5068057;28;20432;-55
2023/02/16 11:37:55;;;;;;;2.10;0.90;;;14.10;97.70;;;;;;5072653;28;20419;-55
2023/02/16 11:40:26;;;;;;;1.60;0.90;;;14.10;97.10;;;;;;5072330;28;20874;-52
2023/02/16 11:42:56;;;;;;;2.25;1.00;;;14.20;96.00;;;;;;5069071;28;20442;-52
2023/02/16 11:45:27;;;;;;;1.30;0.90;;;14.10;94.80;;;;;;5070337;28;20434;-56
2023/02/16 11:47:57;;;;;;;1.88;1.00;;;14.20;94.90;;;;;;5071116;28;20481;-53
2023/02/16 11:50:27;;;;;;;1.70;0.90;;;14.30;94.20;;;;;;5070051;28;20841;-55
2023/02/16 11:52:57;;;;;;;1.70;0.90;;;14.50;93.00;;;;;;5072102;28;20713;-55
2023/02/16 11:55:31;;;;;;;1.88;1.00;;;14.50;93.40;;;;;;5071537;28;20602;-55
2023/02/16 11:58:14;;;;;;;4.72;2.13;;;14.40;94.20;;;;;;5071772;28;20514;-51
2023/02/16 12:00:49;;;;;;;1.70;1.10;;;14.60;93.10;;;;;;5071754;28;20862;-56
2023/02/16 12:03:27;;;;;;;1.80;0.90;;;14.60;92.70;;;;;;5071815;28;20423;-57
2023/02/16 12:06:17;;;;;;;1.98;1.13;;;14.60;93.70;;;;;;5070854;28;20496;-56
2023/02/16 12:09:00;;;;;;;2.40;1.00;;;14.70;92.30;;;;;;5066650;28;20861;-55
2023/02/16 12:11:38;;;;;;;1.40;1.00;;;14.80;91.60;;;;;;5066492;28;20503;-53
2023/02/16 12:14:24;;;;;;;1.73;1.10;;;14.90;90.60;;;;;;5070120;28;20536;-56
2023/02/16 12:17:02;;;;;;;5.10;2.80;;;15.00;91.20;;;;;;5068351;28;20446;-55
2023/02/16 12:19:39;;;;;;;6.70;4.90;;;15.00;92.30;;;;;;5069940;28;20438;-55
2023/02/16 12:22:28;;;;;;;3.08;2.05;;;15.10;92.60;;;;;;5069717;28;20420;-52
2023/02/16 12:25:13;;;;;;;5.20;2.80;;;15.20;93.00;;;;;;5056461;28;20447;-53
2023/02/16 12:27:49;;;;;;;6.37;3.20;;;15.10;93.10;;;;;;5070779;28;20427;-56
2023/02/16 12:30:28;;;;;;;4.50;2.97;;;15.10;93.30;;;;;;5072573;28;20424;-56
2023/02/16 12:33:11;;;;;;;4.85;2.65;;;15.10;92.40;;;;;;5072419;28;20465;-54
2023/02/16 12:35:56;;;;;;;8.07;3.58;;;15.10;92.10;;;;;;5071556;28;20507;-56
2023/02/16 12:38:33;;;;;;;5.20;2.97;;;15.10;92.60;;;;;;5070919;28;20766;-55
2023/02/16 12:41:15;;;;;;;5.07;2.90;;;15.10;92.30;;;;;;5072610;28;20435;-54
2023/02/16 12:43:46;;;;;;;3.55;1.80;;;15.10;92.40;;;;;;5071327;28;20454;-54
2023/02/16 12:46:17;;;;;;;4.20;2.50;;;15.10;92.00;;;;;;5072172;28;20427;-56
2023/02/16 12:48:54;;;;;;;4.97;2.80;;;15.10;91.90;;;;;;5072742;28;20429;-55
2023/02/16 12:51:27;;;;;;;3.20;2.40;;;15.00;92.20;;;;;;5071985;28;20501;-56
2023/02/16 12:54:00;;;;;;;3.80;2.47;;;14.90;92.70;;;;;;5073639;28;20515;-57
2023/02/16 12:56:31;;;;;;;3.60;2.20;;;14.80;92.70;;;;;;5070796;28;20419;-57
2023/02/16 12:59:15;;;;;;;4.78;3.63;;;14.80;92.50;;;;;;5072890;28;20513;-57
2023/02/16 13:01:44;;;;;;;4.22;2.08;;;14.80;91.90;;;;;;5071964;28;20443;-55
2023/02/16 13:04:21;;;;;;;3.10;1.90;;;14.70;91.80;;;;;;5073580;28;20459;-56
2023/02/16 13:06:56;;;;;;;9.63;3.80;;;14.70;92.40;;;;;;5072012;28;20480;-54
2023/02/16 13:09:36;;;;;;;4.57;1.80;;;14.60;93.10;;;;;;5070532;28;20427;-56
2023/02/16 13:12:09;;;;;;;4.22;2.55;;;14.50;92.60;;;;;;5071675;28;20419;-57
2023/02/16 13:14:41;;;;;;;3.20;1.70;;;14.50;92.60;;;;;;5072662;28;20431;-55
2023/02/16 13:17:15;;;;;;;3.47;2.03;;;14.50;92.70;;;;;;5072463;28;20816;-55
2023/02/16 13:19:45;;;;;;;3.40;2.03;;;14.40;93.20;;;;;;5071142;28;20427;-57
2023/02/16 13:22:51;;;;;;;3.83;1.43;;;14.40;93.00;;;;;;5071160;28;20546;-54
2023/02/16 13:25:52;;;;;;;6.40;1.90;;;14.20;92.70;;;;;;5038327;28;21122;-57
2023/02/16 13:28:50;;;;;;;5.72;2.20;;;14.10;93.60;;;;;;5071087;28;20442;-56
2023/02/16 13:31:33;;;;;;;4.97;2.15;;;14.10;93.60;;;;;;5066037;28;20873;-54
2023/02/16 13:34:37;;;;;;;4.60;2.17;;;14.10;94.30;;;;;;5070467;28;20415;-57
2023/02/16 13:37:17;;;;;;;4.63;2.00;;;14.10;94.10;;;;;;5069719;28;20738;-53
2023/02/16 13:40:01;;;;;;;4.40;2.10;;;14.20;94.50;;;;;;5071592;28;20434;-52
2023/02/16 13:43:12;;;;;;;2.85;1.70;;;14.30;94.90;;;;;;5070064;28;20525;-53
2023/02/16 13:45:41;;;;;;;4.45;1.70;;;14.40;95.60;;;;;;5071225;28;20435;-53
2023/02/16 13:48:15;;;;;;;2.00;1.50;;;14.40;95.50;;;;;;5071371;28;20424;-53
2023/02/16 13:50:44;;;;;;;2.60;1.80;;;14.30;95.70;;;;;;5069303;28;20732;-56
2023/02/16 13:53:18;;;;;;;3.30;1.50;;;14.30;96.10;;;;;;5070804;28;20422;-54
2023/02/16 13:55:46;;;;;;;2.58;1.60;;;14.20;96.30;;;;;;5070969;28;20419;-52
2023/02/16 13:58:33;;;;;;;3.90;1.73;;;14.20;96.20;;;;;;5067779;28;20431;-53
2023/02/16 14:01:37;;;;;;;3.10;2.00;;;14.20;96.00;;;;;;5070302;28;20492;-54
2023/02/16 14:04:06;;;;;;;2.95;1.58;;;14.20;96.00;;;;;;5054939;28;20538;-55
2023/02/16 14:06:36;;;;;;;3.00;1.70;;;14.20;96.30;;;;;;5048658;28;20437;-51
2023/02/16 14:09:37;;;;;;;4.00;2.10;;;14.20;96.60;;;;;;5067404;28;20471;-50
2023/02/16 14:12:16;;;;;;;5.77;1.90;;;14.20;97.00;;;;;;5067827;28;20811;-54
2023/02/16 14:14:55;;;;;;;3.63;1.70;;;14.20;97.40;;;;;;5061277;28;20863;-53
2023/02/16 14:17:29;;;;;;;5.07;2.50;;;14.20;97.80;;;;;;5067638;28;20803;-53
2023/02/16 14:19:58;;;;;;;4.50;1.80;;;14.20;97.90;;;;;;5065257;28;20430;-51
2023/02/16 14:22:35;;;;;;;5.40;2.25;;;14.20;98.20;;;;;;5069189;28;20420;-53
2023/02/16 14:25:26;;;;;;;4.45;2.03;;;14.10;98.50;;;;;;5069542;28;20466;-48
2023/02/16 14:27:56;;;;;;;5.15;2.45;;;14.10;98.90;;;;;;5070132;28;20432;-53
2023/02/16 14:30:29;;;;;;;4.25;2.60;;;14.10;99.20;;;;;;5070514;28;20517;-51
2023/02/16 14:33:01;;;;;;;5.15;2.70;;;14.20;99.30;;;;;;5070351;28;20859;-54
2023/02/16 14:35:32;;;;;;;3.50;1.90;;;14.10;99.70;;;;;;5059452;28;20433;-54
2023/02/16 14:38:01;;;;;;;3.08;2.13;;;14.00;99.90;;;;;;5071035;28;20847;-53
2023/02/16 14:40:47;;;;;;;2.83;2.30;;;14.00;99.90;;;;;;5072759;28;20459;-53
2023/02/16 14:43:28;;;;;;;3.58;1.75;;;13.90;99.90;;;;;;5055914;28;20509;-54
2023/02/16 14:46:15;;;;;;;5.72;2.50;;;13.80;99.90;;;;;;5063620;28;20469;-57
2023/02/16 14:49:10;;;;;;;7.78;3.95;;;13.80;99.90;;;;;;5072079;28;20431;-57
2023/02/16 14:52:00;;;;;;;7.30;4.28;;;13.80;99.90;;;;;;5030748;28;20707;-57
2023/02/16 14:54:54;;;;;;;5.88;3.10;;;13.70;99.90;;;;;;5058229;28;20839;-57